Flight Track Log - Related Links

Times and Time Zones

All times are in EDT time to prevent confusion due to time zone crossing. See the DAL930 flight status page for this flight to view local times or setup timezone preferences in your user account.

Time Position Orientation Groundspeed Altitude Reporting Facility
EDT Latitude Longitude Course Direction KTS MPH feet Rate Location/Type
Wed 11:28:24 AM 40.7667 -73.8333 143° Southeast 177 204 1,000  Level New York TRACON
Wed 11:29:18 AM 40.7333 -73.8000 143° Southeast 223 257 2,300 1,789 Climbing New York TRACON
Wed 11:30:18 AM 40.7833 -73.7667 27° Northeast 227 261 4,400 2,050 Climbing New York TRACON
Wed 11:31:18 AM 40.8000 -73.8500 285° West 237 273 6,400 2,100 Climbing New York TRACON
Wed 11:32:18 AM 40.7500 -73.9167 225° Southwest 262 302 8,600 2,300 Climbing New York TRACON
Wed 11:33:18 AM 40.6833 -74.0000 223° Southwest 286 329 11,000 1,700 Climbing New York TRACON
Wed 11:34:18 AM 40.6167 -74.0667 217° Southwest 346 398 12,000 1,450 Climbing New York TRACON
Wed 11:35:18 AM 40.5167 -74.1167 201° Southwest 403 464 13,900 2,000 Climbing New York TRACON
Wed 11:36:42 AM 40.3736 -74.1544 191° South 440 506 16,800 1,292 Climbing New York Center
Wed 11:37:42 AM 40.2706 -74.1822 192° South 429 494 17,000 102 Climbing New York Center
Wed 11:38:40 AM 40.1444 -74.2167 192° South 424 488 17,000 843 Level New York Center
Wed 11:39:43 AM 40.0308 -74.2450 191° South 422 486 18,700 1,512 Climbing Washington Center
Wed 11:40:43 AM 39.9317 -74.3253 212° Southwest 413 475 20,100 1,500 Climbing Washington Center
Wed 11:41:43 AM 39.8225 -74.4272 216° Southwest 429 494 21,700 950 Climbing Washington Center
Wed 11:42:43 AM 39.7361 -74.5419 226° Southwest 439 505 22,000 850 Climbing Washington Center
Wed 11:43:43 AM 39.6494 -74.6536 225° Southwest 439 505 23,400 1,700 Climbing Washington Center
Wed 11:44:43 AM 39.5647 -74.7678 226° Southwest 444 511 25,400 1,800 Climbing Washington Center
Wed 11:45:43 AM 39.4822 -74.8792 226° Southwest 438 504 27,000 1,400 Climbing Washington Center
Wed 11:46:43 AM 39.3953 -74.9900 225° Southwest 438 504 28,200 1,200 Climbing Washington Center
Wed 11:47:43 AM 39.3083 -75.0981 224° Southwest 433 498 29,400 1,150 Climbing Washington Center
Wed 11:48:43 AM 39.1958 -75.1603 203° Southwest 433 498 30,500 1,100 Climbing Washington Center
Wed 11:49:43 AM 39.0794 -75.2067 197° South 433 498 31,600 750 Climbing Washington Center
Wed 11:50:43 AM 38.9650 -75.2581 199° South 438 504 32,000 200 Climbing Washington Center
Wed 11:51:43 AM 38.8461 -75.3064 198° South 438 504 32,000  Level Washington Center
Wed 11:52:43 AM 38.7294 -75.3547 198° South 443 510 32,000  Level Washington Center
Wed 11:53:43 AM 38.6108 -75.4031 198° South 443 510 32,000  Level Washington Center
Wed 11:54:43 AM 38.4961 -75.4511 198° South 443 510 32,000  Level Washington Center
Wed 11:55:43 AM 38.3858 -75.5175 205° Southwest 443 510 32,000  Level Washington Center
Wed 11:56:43 AM 38.2733 -75.5839 205° Southwest 443 510 32,000  Level Washington Center
Wed 11:57:43 AM 38.1669 -75.6525 207° Southwest 443 510 32,000  Level Washington Center
Wed 11:58:43 AM 38.0606 -75.7183 206° Southwest 438 504 32,000  Level Washington Center
Wed 11:59:43 AM 37.9561 -75.7919 209° Southwest 433 498 32,000  Level Washington Center
Wed 12:00:43 PM 37.8539 -75.8469 203° Southwest 433 498 32,000  Level Washington Center
Wed 12:01:43 PM 37.7389 -75.9253 208° Southwest 433 498 32,000  Level Washington Center
Wed 12:02:43 PM 37.6322 -75.9903 206° Southwest 433 498 32,000  Level Washington Center
Wed 12:03:43 PM 37.5217 -76.0553 205° Southwest 428 493 32,000  Level Washington Center
Wed 12:04:43 PM 37.4128 -76.1200 205° Southwest 428 493 32,000  Level Washington Center
Wed 12:05:43 PM 37.3103 -76.1767 204° Southwest 433 498 32,000  Level Washington Center
Wed 12:06:43 PM 37.1975 -76.2411 204° Southwest 433 498 32,000  Level Washington Center
Wed 12:07:43 PM 37.0906 -76.3053 206° Southwest 433 498 32,000  Level Washington Center
Wed 12:08:43 PM 36.9797 -76.3719 206° Southwest 438 504 32,000  Level Washington Center
Wed 12:09:43 PM 36.8708 -76.4358 205° Southwest 438 504 32,000  Level Washington Center
Wed 12:10:43 PM 36.7619 -76.4994 205° Southwest 443 510 32,000  Level Washington Center
Wed 12:11:43 PM 36.6403 -76.5731 206° Southwest 443 510 32,000  Level Washington Center
Wed 12:12:43 PM 36.5311 -76.6364 205° Southwest 443 510 32,000  Level Washington Center
Wed 12:13:43 PM 36.4328 -76.6917 204° Southwest 438 504 32,000  Level Washington Center
Wed 12:14:43 PM 36.3236 -76.7572 206° Southwest 438 504 32,000  Level Washington Center
Wed 12:15:43 PM 36.2122 -76.8200 204° Southwest 443 510 32,000  Level Washington Center
Wed 12:16:43 PM 36.1053 -76.8825 205° Southwest 443 510 32,000  Level Washington Center
Wed 12:17:43 PM 35.9942 -76.9347 201° Southwest 443 510 32,000  Level Washington Center
Wed 12:18:43 PM 35.8789 -76.9839 199° South 443 510 32,000  Level Washington Center
Wed 12:19:43 PM 35.7636 -77.0256 196° South 438 504 32,000  Level Washington Center
Wed 12:20:43 PM 35.6483 -77.0719 198° South 438 504 32,000  Level Washington Center
Wed 12:21:43 PM 35.5244 -77.1233 199° South 433 498 32,000  Level Washington Center
Wed 12:22:43 PM 35.4092 -77.1694 198° South 433 498 32,000  Level Washington Center
Wed 12:23:43 PM 35.2939 -77.2131 197° South 433 498 32,000  Level Washington Center
Wed 12:24:43 PM 35.1825 -77.2592 199° South 433 498 32,000  Level Washington Center
Wed 12:25:43 PM 35.0608 -77.3022 196° South 438 504 32,000  Level Washington Center
Wed 12:26:43 PM 34.9456 -77.3481 198° South 443 510 32,000  Level Washington Center
Wed 12:27:43 PM 34.8281 -77.3936 198° South 443 510 32,000  Level Washington Center
Wed 12:28:43 PM 34.7167 -77.4392 199° South 438 504 32,000  Level Washington Center
Wed 12:29:43 PM 34.5992 -77.4819 197° South 438 504 32,000  Level Washington Center
Wed 12:30:43 PM 34.4839 -77.5244 197° South 438 504 32,000  Level Washington Center
Wed 12:31:43 PM 34.3683 -77.5697 198° South 443 510 32,000  Level Washington Center
Wed 12:32:43 PM 34.2508 -77.6119 197° South 443 510 32,000  Level Washington Center
Wed 12:33:51 PM 34.1242 -77.6600 197° South 454 522 32,000  Level Jacksonville Center
Wed 12:34:51 PM 34.0092 -77.7044 198° South 454 522 32,000  Level Jacksonville Center
Wed 12:35:51 PM 33.8922 -77.7492 198° South 448 516 32,000  Level Jacksonville Center
Wed 12:36:51 PM 33.7769 -77.7908 197° South 443 510 32,000  Level Jacksonville Center
Wed 12:37:51 PM 33.6475 -77.8406 198° South 436 502 32,000  Level Jacksonville Center
Wed 12:38:52 PM 33.5306 -77.8847 197° South 442 509 32,000  Level Jacksonville Center
Wed 12:39:51 PM 33.4153 -77.9286 198° South 442 509 32,000  Level Jacksonville Center
Wed 12:40:51 PM 33.3000 -77.9672 196° South 442 509 32,000  Level Jacksonville Center
Wed 12:41:51 PM 33.1806 -78.0111 197° South 442 509 32,000  Level Jacksonville Center
Wed 12:42:51 PM 33.0656 -78.0569 198° South 442 509 32,000  Level Jacksonville Center
Wed 12:43:51 PM 32.9481 -78.0981 196° South 442 509 32,000  Level Jacksonville Center
Wed 12:44:51 PM 32.8267 -78.1389 196° South 442 509 32,000  Level Jacksonville Center
Wed 12:45:51 PM 32.7114 -78.1844 198° South 442 509 32,000  Level Jacksonville Center
Wed 12:46:51 PM 32.5942 -78.2303 198° South 442 509 32,000  Level Jacksonville Center
Wed 12:47:51 PM 32.4789 -78.2731 197° South 442 509 32,000  Level Jacksonville Center
Wed 12:48:51 PM 32.3614 -78.3133 196° South 437 503 32,000  Level Jacksonville Center
Wed 12:49:51 PM 32.2586 -78.3553 199° South 437 503 32,000  Level Jacksonville Center
Wed 12:50:51 PM 32.1389 -78.3981 197° South 442 509 32,000  Level Jacksonville Center
Wed 12:51:51 PM 32.0175 -78.4433 198° South 447 514 32,000  Level Jacksonville Center
Wed 12:52:51 PM 31.9039 -78.4806 196° South 452 520 32,000  Level Jacksonville Center
Wed 12:53:51 PM 31.7825 -78.5278 198° South 452 520 32,000  Level Jacksonville Center
Wed 12:54:51 PM 31.6689 -78.5650 196° South 452 520 32,000  Level Jacksonville Center
Wed 12:55:51 PM 31.5492 -78.6094 198° South 452 520 32,000  Level Jacksonville Center
Wed 12:56:52 PM 31.4336 -78.6489 196° South 446 513 32,000  Level Jacksonville Center
Wed 12:57:51 PM 31.3142 -78.6933 198° South 446 513 32,000  Level Jacksonville Center
Wed 12:58:51 PM 31.1964 -78.7325 196° South 446 513 32,000  Level Jacksonville Center
Wed 12:59:52 PM 31.0808 -78.7717 196° South 446 513 32,000  Level Jacksonville Center
Wed 01:00:51 PM 30.9447 -78.8211 197° South 461 531 32,000  Level Jacksonville Center
Wed 01:01:51 PM 30.8289 -78.8600 196° South 447 514 32,000  Level Jacksonville Center
Wed 01:02:52 PM 30.7092 -78.9014 197° South 449 517 32,000  Level Jacksonville Center
Wed 01:03:51 PM 30.5894 -78.9425 196° South 456 525 32,000  Level Jacksonville Center
Wed 01:06:19 PM 30.3158 -79.0300 195° South 433 498 32,000  Level Miami Center
Wed 01:07:19 PM 30.1925 -79.0611 192° South 439 505 32,000  Level Miami Center
Wed 01:08:19 PM 30.0731 -79.0947 194° South 439 505 32,000  Level Miami Center
Wed 01:09:19 PM 29.9411 -79.1303 193° South 439 505 32,000  Level Miami Center
Wed 01:10:19 PM 29.8219 -79.1636 194° South 439 505 32,000  Level Miami Center
Wed 01:11:19 PM 29.6942 -79.1919 191° South 453 521 32,000  Level Miami Center
Wed 01:12:19 PM 29.5747 -79.2228 193° South 453 521 32,000  Level Miami Center
Wed 01:13:19 PM 29.4594 -79.2608 196° South 453 521 32,000  Level Miami Center
Wed 01:14:19 PM 29.3358 -79.2889 191° South 448 516 32,000  Level Miami Center
Wed 01:15:19 PM 29.2103 -79.3194 192° South 453 521 32,000  Level Miami Center
Wed 01:16:19 PM 29.0825 -79.3403 188° South 459 528 32,000  Level Miami Center
Wed 01:17:19 PM 28.9653 -79.3758 195° South 454 522 32,000  Level Miami Center
Wed 01:18:19 PM 28.8394 -79.4036 191° South 454 522 32,000  Level Miami Center
Wed 01:19:19 PM 28.7158 -79.4364 193° South 454 522 32,000  Level Miami Center
Wed 01:20:19 PM 28.5922 -79.4667 192° South 454 522 32,000  Level Miami Center
Wed 01:21:19 PM 28.4725 -79.4992 193° South 454 522 32,000  Level Miami Center
Wed 01:22:19 PM 28.3489 -79.5269 191° South 454 522 32,000  Level Miami Center
Wed 01:23:19 PM 28.2253 -79.5594 193° South 449 517 32,000  Level Miami Center
Wed 01:24:19 PM 28.1036 -79.5872 191° South 449 517 32,000  Level Miami Center
Wed 01:25:19 PM 27.9819 -79.6172 192° South 449 517 32,000  Level Miami Center
Wed 01:26:19 PM 27.8814 -79.6406 192° South 449 517 32,000 -250 Level Miami Center
Wed 01:27:19 PM 27.7386 -79.6769 193° South 444 511 31,500 -1,600 Descending Miami Center
Wed 01:28:19 PM 27.6147 -79.7067 192° South 452 520 28,800 -2,550 Descending Miami Center
Wed 01:29:19 PM 27.4953 -79.7364 192° South 452 520 26,400 -2,200 Descending Miami Center
Wed 01:30:19 PM 27.3842 -79.7594 190° South 447 514 24,400 -1,400 Descending Miami Center
Wed 01:31:19 PM 27.2689 -79.7728 186° South 430 495 23,600 -950 Descending Miami Center
Wed 01:32:19 PM 27.1400 -79.7533 172° South 419 482 22,500 -1,750 Descending Miami Center
Wed 01:33:19 PM 27.0253 -79.7364 173° South 424 488 20,100 -2,300 Descending Miami Center
Wed 01:34:19 PM 26.9131 -79.7175 171° South 418 481 17,900 -2,050 Descending Miami Center
Wed 01:35:19 PM 26.8172 -79.6989 170° South 398 458 16,000 -2,100 Descending Miami Center
Wed 01:36:19 PM 26.7147 -79.7056 183° South 375 432 13,700 -2,765 Descending Miami Center
Wed 01:37:01 PM 26.6347 -79.7408 202° Southwest 358 412 11,300 -3,100 Descending Miami Center
Wed 01:37:19 PM 26.6114 -79.7519 203° Southwest 365 420 10,600 -2,286 Descending Miami Center
Wed 01:37:43 PM 26.5736 -79.7719 205° Southwest 356 410 9,700 -2,200 Descending Miami Center
Wed 01:38:19 PM 26.5314 -79.7894 200° South 365 420 8,400 -1,588 Descending Miami Center
Wed 01:38:51 PM 26.4764 -79.8183 205° Southwest 334 384 7,900 -400 Descending Miami Center
Wed 01:39:19 PM 26.4386 -79.8336 200° South 334 384 8,000 109 Climbing Miami Center
Wed 01:39:46 PM 26.4092 -79.8467 202° Southwest 275 316 8,000  Level Miami Center
Wed 01:40:19 PM 26.3689 -79.8689 206° Southwest 299 344 8,000 -98 Level Miami Center
Wed 01:40:47 PM 26.3411 -79.8961 221° Southwest 284 327 7,900  Descending Miami Center
Wed 01:41:19 PM 26.3114 -79.9253 221° Southwest 281 323 8,000 98 Climbing Miami Center
Wed 01:41:48 PM 26.2794 -79.9547 220° Southwest 283 326 8,000 -100 Level Miami Center
Wed 01:42:19 PM 26.2539 -79.9817 223° Southwest 281 323 7,900 -393 Descending Miami Center
Wed 01:42:49 PM 26.2261 -80.0089 221° Southwest 228 262 7,600 -700 Descending Miami Center
Wed 01:43:19 PM 26.2069 -80.0292 224° Southwest 257 296 7,200 -677 Descending Miami Center
Wed 01:43:51 PM 26.1792 -80.0539 219° Southwest 210 242 6,900 -300 Descending Miami Center
Wed 01:44:19 PM 26.1722 -80.0769 251° West 229 264 6,900 98 Level Miami Center
Wed 01:44:52 PM 26.1611 -80.1136 251° West 202 232 7,000  Climbing Miami Center
Wed 01:45:19 PM 26.1586 -80.1319 261° West 203 234 6,900 -98 Descending Miami Center
Wed 01:45:53 PM 26.1472 -80.1733 253° West 204 235 6,900 -500 Level Miami Center
Wed 01:46:19 PM 26.1447 -80.1919 261° West 203 234 6,400 -806 Descending Miami Center
Wed 01:47:00 PM 26.1292 -80.2375 249° West 195 224 6,000 -235 Descending Miami Center
Wed 01:48:01 PM 26.1111 -80.2950 251° West 197 227 6,000 -295 Level Miami Center
Wed 01:49:02 PM 26.0889 -80.3522 247° West 195 224 5,400 -934 Descending Miami Center
Wed 01:50:03 PM 26.1019 -80.4058 285° West 205 236 4,100 -1,180 Descending Miami Center
Wed 01:51:04 PM 26.1444 -80.3817 27° Northeast 182 209 3,000 -541 Descending Miami Center
Wed 01:52:05 PM 26.1561 -80.3286 76° East 183 211 3,000 -259 Level Miami Center
Wed 01:53:00 PM 26.1636 -80.2781 81° East 179 206 2,500 -466 Descending Miami Center
Wed 01:54:01 PM 26.1458 -80.2381 116° Southeast 163 188 2,100 -639 Descending Miami Center
Wed 01:55:02 PM 26.1172 -80.2072 136° Southeast 130 150 1,200 -891 Descending Miami Center
Wed 01:56:09 PM 26.0844 -80.1739 138° Southeast 132 152 200 -896 Descending Miami Center
Wed 01:58:00 PM 26.0667 -80.1500 103° East  Level FlightAware Approximate

Login

Don't have an account? Register now (free) for customized features, flight alerts, and more!